sensor_id;sensor_type;location;lat;lon;timestamp;temperature;humidity
25170;DHT22;13129;48.012;10.352;2022-07-30T03:21:44;15.00;99.90
25170;DHT22;13129;48.012;10.352;2022-07-30T03:24:44;15.00;99.90
25170;DHT22;13129;48.012;10.352;2022-07-30T03:28:24;15.00;99.90
25170;DHT22;13129;48.012;10.352;2022-07-30T04:09:18;15.10;99.90
25170;DHT22;13129;48.012;10.352;2022-07-30T04:43:25;15.60;99.90
25170;DHT22;13129;48.012;10.352;2022-07-30T05:40:58;19.20;99.90
25170;DHT22;13129;48.012;10.352;2022-07-30T05:43:24;21.10;99.90
25170;DHT22;13129;48.012;10.352;2022-07-30T05:45:49;21.80;99.90
25170;DHT22;13129;48.012;10.352;2022-07-30T05:48:15;21.50;99.90
25170;DHT22;13129;48.012;10.352;2022-07-30T05:50:41;21.00;99.90
25170;DHT22;13129;48.012;10.352;2022-07-30T05:53:06;20.40;99.90
25170;DHT22;13129;48.012;10.352;2022-07-30T05:55:32;20.10;99.90
25170;DHT22;13129;48.012;10.352;2022-07-30T05:57:57;19.80;99.90
25170;DHT22;13129;48.012;10.352;2022-07-30T06:00:23;19.90;99.90
25170;DHT22;13129;48.012;10.352;2022-07-30T06:02:49;20.20;99.90
25170;DHT22;13129;48.012;10.352;2022-07-30T06:05:14;20.90;99.90
25170;DHT22;13129;48.012;10.352;2022-07-30T06:07:40;21.70;99.90
25170;DHT22;13129;48.012;10.352;2022-07-30T06:10:06;23.40;99.90
25170;DHT22;13129;48.012;10.352;2022-07-30T06:12:32;24.90;99.90
25170;DHT22;13129;48.012;10.352;2022-07-30T06:14:58;26.50;99.90
25170;DHT22;13129;48.012;10.352;2022-07-30T06:17:24;27.50;99.90
25170;DHT22;13129;48.012;10.352;2022-07-30T06:19:49;28.30;99.90
25170;DHT22;13129;48.012;10.352;2022-07-30T06:22:16;28.90;98.50
25170;DHT22;13129;48.012;10.352;2022-07-30T06:24:41;29.30;95.60
25170;DHT22;13129;48.012;10.352;2022-07-30T06:27:07;29.50;93.70
25170;DHT22;13129;48.012;10.352;2022-07-30T06:29:33;30.10;92.50
25170;DHT22;13129;48.012;10.352;2022-07-30T06:31:59;30.70;90.20
25170;DHT22;13129;48.012;10.352;2022-07-30T06:34:24;31.30;86.90
25170;DHT22;13129;48.012;10.352;2022-07-30T06:36:50;31.90;83.30
25170;DHT22;13129;48.012;10.352;2022-07-30T06:39:16;32.20;79.60
25170;DHT22;13129;48.012;10.352;2022-07-30T06:41:41;32.20;77.00
25170;DHT22;13129;48.012;10.352;2022-07-30T06:44:07;32.50;76.20
25170;DHT22;13129;48.012;10.352;2022-07-30T06:46:33;32.70;73.80
25170;DHT22;13129;48.012;10.352;2022-07-30T06:48:58;32.90;71.90
25170;DHT22;13129;48.012;10.352;2022-07-30T06:51:24;33.10;72.00
25170;DHT22;13129;48.012;10.352;2022-07-30T06:53:50;33.10;69.70
25170;DHT22;13129;48.012;10.352;2022-07-30T06:56:15;33.10;68.90
25170;DHT22;13129;48.012;10.352;2022-07-30T06:58:41;32.80;67.80
25170;DHT22;13129;48.012;10.352;2022-07-30T07:01:07;33.20;68.60
25170;DHT22;13129;48.012;10.352;2022-07-30T07:03:33;32.80;67.70
25170;DHT22;13129;48.012;10.352;2022-07-30T07:05:58;32.60;68.60
25170;DHT22;13129;48.012;10.352;2022-07-30T07:08:24;32.90;67.60
25170;DHT22;13129;48.012;10.352;2022-07-30T07:10:51;33.40;66.50
25170;DHT22;13129;48.012;10.352;2022-07-30T07:13:16;33.50;65.50
25170;DHT22;13129;48.012;10.352;2022-07-30T07:15:42;33.40;64.00
25170;DHT22;13129;48.012;10.352;2022-07-30T07:18:08;31.40;65.70
25170;DHT22;13129;48.012;10.352;2022-07-30T07:20:34;29.60;71.00
25170;DHT22;13129;48.012;10.352;2022-07-30T07:23:00;29.80;73.90
25170;DHT22;13129;48.012;10.352;2022-07-30T07:25:26;29.20;73.30
25170;DHT22;13129;48.012;10.352;2022-07-30T07:27:52;28.50;76.20
25170;DHT22;13129;48.012;10.352;2022-07-30T07:30:18;29.20;74.00
25170;DHT22;13129;48.012;10.352;2022-07-30T07:32:44;30.20;71.10
25170;DHT22;13129;48.012;10.352;2022-07-30T07:35:12;31.20;69.70
25170;DHT22;13129;48.012;10.352;2022-07-30T07:37:38;32.30;66.70
25170;DHT22;13129;48.012;10.352;2022-07-30T07:40:06;32.60;63.60
25170;DHT22;13129;48.012;10.352;2022-07-30T07:42:32;33.10;63.90
25170;DHT22;13129;48.012;10.352;2022-07-30T07:44:58;33.40;61.60
25170;DHT22;13129;48.012;10.352;2022-07-30T07:47:23;33.60;60.90
25170;DHT22;13129;48.012;10.352;2022-07-30T07:49:49;33.90;59.70
25170;DHT22;13129;48.012;10.352;2022-07-30T07:52:15;34.40;58.90
25170;DHT22;13129;48.012;10.352;2022-07-30T07:54:40;34.20;57.90
25170;DHT22;13129;48.012;10.352;2022-07-30T07:57:06;34.20;58.70
25170;DHT22;13129;48.012;10.352;2022-07-30T07:59:33;34.80;58.50
25170;DHT22;13129;48.012;10.352;2022-07-30T08:01:59;35.10;56.00
25170;DHT22;13129;48.012;10.352;2022-07-30T08:04:24;36.00;55.60
25170;DHT22;13129;48.012;10.352;2022-07-30T08:06:50;36.20;54.20
25170;DHT22;13129;48.012;10.352;2022-07-30T08:09:16;36.10;53.10
25170;DHT22;13129;48.012;10.352;2022-07-30T08:11:41;35.90;52.70
25170;DHT22;13129;48.012;10.352;2022-07-30T08:14:07;35.80;52.00
25170;DHT22;13129;48.012;10.352;2022-07-30T08:16:33;36.00;52.40
25170;DHT22;13129;48.012;10.352;2022-07-30T08:18:59;36.10;52.10
25170;DHT22;13129;48.012;10.352;2022-07-30T08:21:24;36.00;51.80
25170;DHT22;13129;48.012;10.352;2022-07-30T08:23:50;37.00;51.00
25170;DHT22;13129;48.012;10.352;2022-07-30T08:26:15;37.00;49.10
25170;DHT22;13129;48.012;10.352;2022-07-30T08:28:41;36.30;50.10
25170;DHT22;13129;48.012;10.352;2022-07-30T08:31:08;36.30;50.50
25170;DHT22;13129;48.012;10.352;2022-07-30T08:33:33;36.30;50.00
25170;DHT22;13129;48.012;10.352;2022-07-30T08:36:00;36.20;50.40
25170;DHT22;13129;48.012;10.352;2022-07-30T08:38:26;36.50;49.80
25170;DHT22;13129;48.012;10.352;2022-07-30T08:40:54;36.20;50.30
25170;DHT22;13129;48.012;10.352;2022-07-30T08:43:20;34.90;51.30
25170;DHT22;13129;48.012;10.352;2022-07-30T08:45:49;34.20;53.90
25170;DHT22;13129;48.012;10.352;2022-07-30T08:48:16;34.30;53.30
25170;DHT22;13129;48.012;10.352;2022-07-30T08:50:45;35.20;52.70
25170;DHT22;13129;48.012;10.352;2022-07-30T08:53:11;36.40;50.50
25170;DHT22;13129;48.012;10.352;2022-07-30T08:55:38;36.80;50.10
25170;DHT22;13129;48.012;10.352;2022-07-30T08:58:05;36.80;46.90
25170;DHT22;13129;48.012;10.352;2022-07-30T09:00:37;36.10;47.10
25170;DHT22;13129;48.012;10.352;2022-07-30T09:03:03;35.90;47.00
25170;DHT22;13129;48.012;10.352;2022-07-30T09:05:29;35.90;48.00
25170;DHT22;13129;48.012;10.352;2022-07-30T09:07:55;34.20;48.70
25170;DHT22;13129;48.012;10.352;2022-07-30T09:10:22;33.10;51.70
25170;DHT22;13129;48.012;10.352;2022-07-30T09:12:49;32.90;52.10
25170;DHT22;13129;48.012;10.352;2022-07-30T09:15:17;31.10;52.00
25170;DHT22;13129;48.012;10.352;2022-07-30T09:18:02;29.50;56.40
25170;DHT22;13129;48.012;10.352;2022-07-30T09:20:33;29.70;55.90
25170;DHT22;13129;48.012;10.352;2022-07-30T09:23:01;31.60;54.00
25170;DHT22;13129;48.012;10.352;2022-07-30T09:25:39;31.90;52.40
25170;DHT22;13129;48.012;10.352;2022-07-30T09:28:06;30.80;54.00
25170;DHT22;13129;48.012;10.352;2022-07-30T09:33:12;30.40;56.60
25170;DHT22;13129;48.012;10.352;2022-07-30T09:35:39;31.90;54.70
25170;DHT22;13129;48.012;10.352;2022-07-30T09:38:06;32.90;52.40
25170;DHT22;13129;48.012;10.352;2022-07-30T09:40:32;32.80;51.80
25170;DHT22;13129;48.012;10.352;2022-07-30T09:43:10;32.10;54.20
25170;DHT22;13129;48.012;10.352;2022-07-30T09:45:52;32.80;52.90
25170;DHT22;13129;48.012;10.352;2022-07-30T09:48:22;33.50;51.30
25170;DHT22;13129;48.012;10.352;2022-07-30T09:50:50;34.20;49.30
25170;DHT22;13129;48.012;10.352;2022-07-30T09:53:16;35.10;48.40
25170;DHT22;13129;48.012;10.352;2022-07-30T09:55:42;34.20;48.80
25170;DHT22;13129;48.012;10.352;2022-07-30T09:58:10;32.40;51.10
25170;DHT22;13129;48.012;10.352;2022-07-30T10:00:36;32.00;52.80
25170;DHT22;13129;48.012;10.352;2022-07-30T10:03:23;32.50;51.80
25170;DHT22;13129;48.012;10.352;2022-07-30T10:05:51;32.00;53.60
25170;DHT22;13129;48.012;10.352;2022-07-30T10:08:17;31.20;53.90
25170;DHT22;13129;48.012;10.352;2022-07-30T10:10:44;30.30;55.00
25170;DHT22;13129;48.012;10.352;2022-07-30T10:13:10;30.00;57.20
25170;DHT22;13129;48.012;10.352;2022-07-30T10:15:37;30.00;57.10
25170;DHT22;13129;48.012;10.352;2022-07-30T10:18:05;29.90;56.90
25170;DHT22;13129;48.012;10.352;2022-07-30T10:20:31;30.60;58.50
25170;DHT22;13129;48.012;10.352;2022-07-30T10:22:57;31.40;55.50
25170;DHT22;13129;48.012;10.352;2022-07-30T10:25:25;31.40;54.70
25170;DHT22;13129;48.012;10.352;2022-07-30T10:27:51;31.00;55.80
25170;DHT22;13129;48.012;10.352;2022-07-30T10:30:17;31.70;56.40
25170;DHT22;13129;48.012;10.352;2022-07-30T10:32:44;32.50;54.90
25170;DHT22;13129;48.012;10.352;2022-07-30T10:35:11;33.10;54.50
25170;DHT22;13129;48.012;10.352;2022-07-30T10:37:40;32.80;54.30
25170;DHT22;13129;48.012;10.352;2022-07-30T10:40:26;32.00;54.70
25170;DHT22;13129;48.012;10.352;2022-07-30T10:43:16;30.80;56.60
25170;DHT22;13129;48.012;10.352;2022-07-30T10:48:44;29.60;60.50
25170;DHT22;13129;48.012;10.352;2022-07-30T10:51:10;29.10;61.00
25170;DHT22;13129;48.012;10.352;2022-07-30T10:53:42;28.70;61.80
25170;DHT22;13129;48.012;10.352;2022-07-30T10:56:18;28.20;62.30
25170;DHT22;13129;48.012;10.352;2022-07-30T10:59:08;27.50;62.30
25170;DHT22;13129;48.012;10.352;2022-07-30T11:04:38;27.00;66.30
25170;DHT22;13129;48.012;10.352;2022-07-30T11:09:50;26.90;68.00
25170;DHT22;13129;48.012;10.352;2022-07-30T11:15:13;27.00;67.60
25170;DHT22;13129;48.012;10.352;2022-07-30T11:18:07;27.20;67.70
25170;DHT22;13129;48.012;10.352;2022-07-30T11:20:36;26.80;66.80
25170;DHT22;13129;48.012;10.352;2022-07-30T11:25:57;25.80;67.90
25170;DHT22;13129;48.012;10.352;2022-07-30T11:28:43;26.20;68.80
25170;DHT22;13129;48.012;10.352;2022-07-30T11:31:31;25.90;68.60
25170;DHT22;13129;48.012;10.352;2022-07-30T11:42:30;26.50;69.30
25170;DHT22;13129;48.012;10.352;2022-07-30T11:47:48;27.30;66.70
25170;DHT22;13129;48.012;10.352;2022-07-30T11:50:18;27.40;66.50
25170;DHT22;13129;48.012;10.352;2022-07-30T11:52:52;26.90;65.60
25170;DHT22;13129;48.012;10.352;2022-07-30T11:55:26;26.50;64.90
25170;DHT22;13129;48.012;10.352;2022-07-30T11:57:55;26.00;65.20
25170;DHT22;13129;48.012;10.352;2022-07-30T12:00:21;25.30;65.80
25170;DHT22;13129;48.012;10.352;2022-07-30T12:02:47;25.30;67.50
25170;DHT22;13129;48.012;10.352;2022-07-30T12:05:14;25.00;66.30
25170;DHT22;13129;48.012;10.352;2022-07-30T12:07:40;24.70;67.10
25170;DHT22;13129;48.012;10.352;2022-07-30T12:10:17;24.40;68.30
25170;DHT22;13129;48.012;10.352;2022-07-30T12:12:44;24.60;70.00
25170;DHT22;13129;48.012;10.352;2022-07-30T12:15:10;25.10;68.30
25170;DHT22;13129;48.012;10.352;2022-07-30T12:17:43;25.10;67.10
25170;DHT22;13129;48.012;10.352;2022-07-30T12:20:16;24.90;67.90
25170;DHT22;13129;48.012;10.352;2022-07-30T12:22:43;25.30;68.50
25170;DHT22;13129;48.012;10.352;2022-07-30T12:25:10;25.60;67.60
25170;DHT22;13129;48.012;10.352;2022-07-30T12:27:36;25.60;67.00
25170;DHT22;13129;48.012;10.352;2022-07-30T12:30:03;25.60;66.00
25170;DHT22;13129;48.012;10.352;2022-07-30T12:32:29;25.80;67.90
25170;DHT22;13129;48.012;10.352;2022-07-30T12:34:56;25.90;67.70
25170;DHT22;13129;48.012;10.352;2022-07-30T12:37:23;25.90;67.10
25170;DHT22;13129;48.012;10.352;2022-07-30T12:39:49;26.20;67.00
25170;DHT22;13129;48.012;10.352;2022-07-30T12:42:20;25.90;64.60
25170;DHT22;13129;48.012;10.352;2022-07-30T12:44:49;25.70;65.60
25170;DHT22;13129;48.012;10.352;2022-07-30T12:49:55;25.80;65.90
25170;DHT22;13129;48.012;10.352;2022-07-30T12:52:23;25.90;66.60
25170;DHT22;13129;48.012;10.352;2022-07-30T12:55:00;25.80;66.40
25170;DHT22;13129;48.012;10.352;2022-07-30T12:57:26;25.70;65.80
25170;DHT22;13129;48.012;10.352;2022-07-30T13:00:06;25.90;65.80
25170;DHT22;13129;48.012;10.352;2022-07-30T13:02:33;25.70;65.30
25170;DHT22;13129;48.012;10.352;2022-07-30T13:05:01;25.60;65.40
25170;DHT22;13129;48.012;10.352;2022-07-30T13:07:27;25.40;66.00
25170;DHT22;13129;48.012;10.352;2022-07-30T13:10:07;25.60;66.10
25170;DHT22;13129;48.012;10.352;2022-07-30T13:12:33;25.80;66.40
25170;DHT22;13129;48.012;10.352;2022-07-30T13:14:59;25.90;65.30
25170;DHT22;13129;48.012;10.352;2022-07-30T13:17:25;25.50;65.00
25170;DHT22;13129;48.012;10.352;2022-07-30T13:19:51;25.10;65.50
25170;DHT22;13129;48.012;10.352;2022-07-30T13:22:16;24.60;66.50
25170;DHT22;13129;48.012;10.352;2022-07-30T13:24:42;24.40;68.40
25170;DHT22;13129;48.012;10.352;2022-07-30T13:27:08;24.30;68.50
25170;DHT22;13129;48.012;10.352;2022-07-30T13:29:34;24.50;69.90
25170;DHT22;13129;48.012;10.352;2022-07-30T13:31:59;24.80;70.20
25170;DHT22;13129;48.012;10.352;2022-07-30T13:34:25;25.10;69.70
25170;DHT22;13129;48.012;10.352;2022-07-30T13:36:51;25.30;68.30
25170;DHT22;13129;48.012;10.352;2022-07-30T13:39:16;25.50;67.80
25170;DHT22;13129;48.012;10.352;2022-07-30T13:41:44;25.60;67.30
25170;DHT22;13129;48.012;10.352;2022-07-30T13:44:10;25.70;66.70
25170;DHT22;13129;48.012;10.352;2022-07-30T13:46:37;25.60;66.20
25170;DHT22;13129;48.012;10.352;2022-07-30T13:49:03;25.50;66.20
25170;DHT22;13129;48.012;10.352;2022-07-30T13:51:30;25.50;67.50
25170;DHT22;13129;48.012;10.352;2022-07-30T13:53:56;25.30;67.00
25170;DHT22;13129;48.012;10.352;2022-07-30T13:56:22;24.90;66.10
25170;DHT22;13129;48.012;10.352;2022-07-30T13:58:47;24.50;67.30
25170;DHT22;13129;48.012;10.352;2022-07-30T14:01:13;24.10;67.00
25170;DHT22;13129;48.012;10.352;2022-07-30T14:03:40;24.10;68.70
25170;DHT22;13129;48.012;10.352;2022-07-30T14:06:05;24.00;69.10
25170;DHT22;13129;48.012;10.352;2022-07-30T14:08:31;24.20;69.70
25170;DHT22;13129;48.012;10.352;2022-07-30T14:10:57;24.30;69.80
25170;DHT22;13129;48.012;10.352;2022-07-30T14:13:23;24.30;68.90
25170;DHT22;13129;48.012;10.352;2022-07-30T14:15:50;24.20;68.60
25170;DHT22;13129;48.012;10.352;2022-07-30T14:18:15;24.00;70.20
25170;DHT22;13129;48.012;10.352;2022-07-30T14:20:41;23.80;70.20
25170;DHT22;13129;48.012;10.352;2022-07-30T14:23:07;23.70;70.50
25170;DHT22;13129;48.012;10.352;2022-07-30T14:25:33;23.70;72.30
25170;DHT22;13129;48.012;10.352;2022-07-30T14:27:59;23.70;72.20
25170;DHT22;13129;48.012;10.352;2022-07-30T14:30:25;23.90;72.10
25170;DHT22;13129;48.012;10.352;2022-07-30T14:32:50;24.00;72.50
25170;DHT22;13129;48.012;10.352;2022-07-30T14:35:16;24.30;72.10
25170;DHT22;13129;48.012;10.352;2022-07-30T14:37:42;24.70;71.10
25170;DHT22;13129;48.012;10.352;2022-07-30T14:40:10;24.90;70.10
25170;DHT22;13129;48.012;10.352;2022-07-30T14:42:40;25.20;69.60
25170;DHT22;13129;48.012;10.352;2022-07-30T14:45:07;25.20;68.90
25170;DHT22;13129;48.012;10.352;2022-07-30T14:47:33;25.40;68.20
25170;DHT22;13129;48.012;10.352;2022-07-30T14:49:59;25.60;67.40
25170;DHT22;13129;48.012;10.352;2022-07-30T14:52:25;25.90;66.90
25170;DHT22;13129;48.012;10.352;2022-07-30T14:54:51;25.70;65.80
25170;DHT22;13129;48.012;10.352;2022-07-30T14:57:17;25.40;66.10
25170;DHT22;13129;48.012;10.352;2022-07-30T14:59:43;25.10;66.70
25170;DHT22;13129;48.012;10.352;2022-07-30T15:02:08;25.00;67.90
25170;DHT22;13129;48.012;10.352;2022-07-30T15:04:34;25.00;68.20
25170;DHT22;13129;48.012;10.352;2022-07-30T15:07:00;25.00;69.20
25170;DHT22;13129;48.012;10.352;2022-07-30T15:09:26;25.00;68.80
25170;DHT22;13129;48.012;10.352;2022-07-30T15:11:52;24.80;69.80
25170;DHT22;13129;48.012;10.352;2022-07-30T15:14:18;24.50;70.10
25170;DHT22;13129;48.012;10.352;2022-07-30T15:16:43;24.20;71.10
25170;DHT22;13129;48.012;10.352;2022-07-30T15:19:09;24.10;71.70
25170;DHT22;13129;48.012;10.352;2022-07-30T15:21:37;24.10;71.80
25170;DHT22;13129;48.012;10.352;2022-07-30T15:24:03;24.10;73.10
25170;DHT22;13129;48.012;10.352;2022-07-30T15:26:29;24.10;73.60
25170;DHT22;13129;48.012;10.352;2022-07-30T15:28:54;24.00;74.20
25170;DHT22;13129;48.012;10.352;2022-07-30T15:31:20;23.90;75.00
25170;DHT22;13129;48.012;10.352;2022-07-30T15:33:45;23.80;75.80
25170;DHT22;13129;48.012;10.352;2022-07-30T15:36:13;23.70;75.90
25170;DHT22;13129;48.012;10.352;2022-07-30T15:38:39;23.60;76.20
25170;DHT22;13129;48.012;10.352;2022-07-30T15:41:05;23.50;76.80
25170;DHT22;13129;48.012;10.352;2022-07-30T15:43:30;23.30;77.00
25170;DHT22;13129;48.012;10.352;2022-07-30T15:45:56;23.30;77.90
25170;DHT22;13129;48.012;10.352;2022-07-30T15:48:23;23.30;77.70
25170;DHT22;13129;48.012;10.352;2022-07-30T15:50:48;23.30;77.60
25170;DHT22;13129;48.012;10.352;2022-07-30T15:53:14;23.30;78.50
25170;DHT22;13129;48.012;10.352;2022-07-30T15:55:40;23.40;77.80
25170;DHT22;13129;48.012;10.352;2022-07-30T15:58:05;23.40;77.50
25170;DHT22;13129;48.012;10.352;2022-07-30T16:00:31;23.30;77.40
25170;DHT22;13129;48.012;10.352;2022-07-30T16:02:57;23.10;77.30
25170;DHT22;13129;48.012;10.352;2022-07-30T16:05:24;22.90;77.70
25170;DHT22;13129;48.012;10.352;2022-07-30T16:07:49;22.80;78.50
25170;DHT22;13129;48.012;10.352;2022-07-30T16:10:15;22.60;78.60
25170;DHT22;13129;48.012;10.352;2022-07-30T16:12:41;22.50;79.20
25170;DHT22;13129;48.012;10.352;2022-07-30T16:15:07;22.50;79.40
25170;DHT22;13129;48.012;10.352;2022-07-30T16:17:33;22.50;79.40
25170;DHT22;13129;48.012;10.352;2022-07-30T16:19:59;22.40;79.90
25170;DHT22;13129;48.012;10.352;2022-07-30T16:22:24;22.40;79.80
25170;DHT22;13129;48.012;10.352;2022-07-30T16:24:51;22.50;80.30
25170;DHT22;13129;48.012;10.352;2022-07-30T16:27:17;22.50;81.30
25170;DHT22;13129;48.012;10.352;2022-07-30T16:29:43;22.60;82.10
25170;DHT22;13129;48.012;10.352;2022-07-30T16:32:09;22.70;83.40
25170;DHT22;13129;48.012;10.352;2022-07-30T16:34:36;22.90;83.50
25170;DHT22;13129;48.012;10.352;2022-07-30T16:37:02;23.00;83.10
25170;DHT22;13129;48.012;10.352;2022-07-30T16:39:28;23.10;82.20
25170;DHT22;13129;48.012;10.352;2022-07-30T16:41:53;23.10;82.10
25170;DHT22;13129;48.012;10.352;2022-07-30T16:44:19;23.20;82.00
25170;DHT22;13129;48.012;10.352;2022-07-30T16:46:45;23.30;82.00
25170;DHT22;13129;48.012;10.352;2022-07-30T16:49:10;23.40;81.80
25170;DHT22;13129;48.012;10.352;2022-07-30T16:51:36;23.60;80.90
25170;DHT22;13129;48.012;10.352;2022-07-30T16:54:02;23.60;81.00
25170;DHT22;13129;48.012;10.352;2022-07-30T16:56:28;23.60;80.40
25170;DHT22;13129;48.012;10.352;2022-07-30T16:58:54;23.50;80.90
25170;DHT22;13129;48.012;10.352;2022-07-30T17:01:19;23.30;81.90
25170;DHT22;13129;48.012;10.352;2022-07-30T17:03:45;23.20;82.80
25170;DHT22;13129;48.012;10.352;2022-07-30T17:06:10;23.00;83.60
25170;DHT22;13129;48.012;10.352;2022-07-30T17:08:36;22.90;83.50
25170;DHT22;13129;48.012;10.352;2022-07-30T17:11:02;22.80;83.30
25170;DHT22;13129;48.012;10.352;2022-07-30T17:13:28;22.80;84.20
25170;DHT22;13129;48.012;10.352;2022-07-30T17:15:54;22.70;84.50
25170;DHT22;13129;48.012;10.352;2022-07-30T17:18:19;22.60;84.20
25170;DHT22;13129;48.012;10.352;2022-07-30T17:20:45;22.60;84.60
25170;DHT22;13129;48.012;10.352;2022-07-30T17:23:11;22.50;84.40
25170;DHT22;13129;48.012;10.352;2022-07-30T17:25:36;22.40;84.80
25170;DHT22;13129;48.012;10.352;2022-07-30T17:28:02;22.30;84.90
25170;DHT22;13129;48.012;10.352;2022-07-30T17:30:28;22.10;85.00
25170;DHT22;13129;48.012;10.352;2022-07-30T17:32:54;22.00;85.40
25170;DHT22;13129;48.012;10.352;2022-07-30T17:35:20;21.90;86.30
25170;DHT22;13129;48.012;10.352;2022-07-30T17:37:46;21.80;86.80
25170;DHT22;13129;48.012;10.352;2022-07-30T17:40:12;21.80;87.00
25170;DHT22;13129;48.012;10.352;2022-07-30T17:42:38;21.70;87.50
25170;DHT22;13129;48.012;10.352;2022-07-30T17:45:09;21.60;88.40
25170;DHT22;13129;48.012;10.352;2022-07-30T17:47:35;21.50;89.70
25170;DHT22;13129;48.012;10.352;2022-07-30T17:50:00;21.50;90.20
25170;DHT22;13129;48.012;10.352;2022-07-30T17:52:26;21.40;90.50
25170;DHT22;13129;48.012;10.352;2022-07-30T17:54:52;21.40;90.80
25170;DHT22;13129;48.012;10.352;2022-07-30T17:57:17;21.40;91.10
25170;DHT22;13129;48.012;10.352;2022-07-30T17:59:44;21.50;91.50
25170;DHT22;13129;48.012;10.352;2022-07-30T18:02:10;21.40;91.50
25170;DHT22;13129;48.012;10.352;2022-07-30T18:04:36;21.40;91.40
25170;DHT22;13129;48.012;10.352;2022-07-30T18:07:01;21.40;91.60
25170;DHT22;13129;48.012;10.352;2022-07-30T18:09:27;21.40;92.00
25170;DHT22;13129;48.012;10.352;2022-07-30T18:11:55;21.40;92.10
25170;DHT22;13129;48.012;10.352;2022-07-30T18:14:21;21.30;92.10
25170;DHT22;13129;48.012;10.352;2022-07-30T18:16:49;21.20;92.30
25170;DHT22;13129;48.012;10.352;2022-07-30T18:19:14;21.20;92.50
25170;DHT22;13129;48.012;10.352;2022-07-30T18:21:40;21.00;92.90
25170;DHT22;13129;48.012;10.352;2022-07-30T18:24:06;20.90;93.30
25170;DHT22;13129;48.012;10.352;2022-07-30T18:26:31;20.80;93.80
25170;DHT22;13129;48.012;10.352;2022-07-30T18:29:04;20.60;94.40
25170;DHT22;13129;48.012;10.352;2022-07-30T18:31:30;20.50;95.30
25170;DHT22;13129;48.012;10.352;2022-07-30T18:33:56;20.40;96.50
25170;DHT22;13129;48.012;10.352;2022-07-30T18:36:22;20.30;97.40
25170;DHT22;13129;48.012;10.352;2022-07-30T18:38:47;20.20;98.50
25170;DHT22;13129;48.012;10.352;2022-07-30T18:41:15;20.10;99.70
25170;DHT22;13129;48.012;10.352;2022-07-30T18:43:40;20.10;99.90
25170;DHT22;13129;48.012;10.352;2022-07-30T18:46:06;20.00;99.90
25170;DHT22;13129;48.012;10.352;2022-07-30T18:48:33;20.00;99.90
25170;DHT22;13129;48.012;10.352;2022-07-30T18:51:00;20.00;99.90
25170;DHT22;13129;48.012;10.352;2022-07-30T18:53:26;20.10;99.90
25170;DHT22;13129;48.012;10.352;2022-07-30T18:55:52;20.10;99.90
25170;DHT22;13129;48.012;10.352;2022-07-30T18:58:17;20.10;99.90
25170;DHT22;13129;48.012;10.352;2022-07-30T19:00:43;20.00;99.90
25170;DHT22;13129;48.012;10.352;2022-07-30T19:03:13;20.00;99.90
25170;DHT22;13129;48.012;10.352;2022-07-30T19:05:39;19.90;99.90
25170;DHT22;13129;48.012;10.352;2022-07-30T19:08:06;19.80;99.90
25170;DHT22;13129;48.012;10.352;2022-07-30T19:10:32;19.70;99.90
25170;DHT22;13129;48.012;10.352;2022-07-30T19:12:58;19.60;99.90
25170;DHT22;13129;48.012;10.352;2022-07-30T19:15:24;19.60;99.90
25170;DHT22;13129;48.012;10.352;2022-07-30T19:17:50;19.50;99.90
25170;DHT22;13129;48.012;10.352;2022-07-30T19:20:17;19.50;99.90
25170;DHT22;13129;48.012;10.352;2022-07-30T19:22:42;19.50;99.90
25170;DHT22;13129;48.012;10.352;2022-07-30T19:25:09;19.50;99.90
25170;DHT22;13129;48.012;10.352;2022-07-30T19:27:35;19.50;99.90
25170;DHT22;13129;48.012;10.352;2022-07-30T19:30:01;19.50;99.90
25170;DHT22;13129;48.012;10.352;2022-07-30T19:32:27;19.40;99.90
25170;DHT22;13129;48.012;10.352;2022-07-30T19:34:53;19.40;99.90
25170;DHT22;13129;48.012;10.352;2022-07-30T19:37:19;19.40;99.90
25170;DHT22;13129;48.012;10.352;2022-07-30T19:39:45;19.30;99.90
25170;DHT22;13129;48.012;10.352;2022-07-30T19:42:10;19.20;99.90
25170;DHT22;13129;48.012;10.352;2022-07-30T19:44:36;19.10;99.90
25170;DHT22;13129;48.012;10.352;2022-07-30T19:47:02;19.00;99.90
25170;DHT22;13129;48.012;10.352;2022-07-30T19:49:28;18.90;99.90
25170;DHT22;13129;48.012;10.352;2022-07-30T19:51:54;18.80;99.90
25170;DHT22;13129;48.012;10.352;2022-07-30T19:54:20;18.80;99.90
25170;DHT22;13129;48.012;10.352;2022-07-30T19:56:46;18.70;99.90
25170;DHT22;13129;48.012;10.352;2022-07-30T19:59:11;18.70;99.90
25170;DHT22;13129;48.012;10.352;2022-07-30T20:01:41;18.70;99.90
25170;DHT22;13129;48.012;10.352;2022-07-30T20:04:07;18.60;99.90
25170;DHT22;13129;48.012;10.352;2022-07-30T20:06:32;18.60;99.90
25170;DHT22;13129;48.012;10.352;2022-07-30T20:08:58;18.60;99.90
25170;DHT22;13129;48.012;10.352;2022-07-30T20:11:24;18.50;99.90
25170;DHT22;13129;48.012;10.352;2022-07-30T20:13:49;18.50;99.90
25170;DHT22;13129;48.012;10.352;2022-07-30T20:16:16;18.50;99.90
25170;DHT22;13129;48.012;10.352;2022-07-30T20:18:42;18.50;99.90
25170;DHT22;13129;48.012;10.352;2022-07-30T20:21:09;18.50;99.90
25170;DHT22;13129;48.012;10.352;2022-07-30T20:23:35;18.50;99.90
25170;DHT22;13129;48.012;10.352;2022-07-30T20:26:00;18.50;99.90
25170;DHT22;13129;48.012;10.352;2022-07-30T20:28:28;18.50;99.90
25170;DHT22;13129;48.012;10.352;2022-07-30T20:30:54;18.60;99.90
25170;DHT22;13129;48.012;10.352;2022-07-30T20:33:20;18.60;99.90
25170;DHT22;13129;48.012;10.352;2022-07-30T20:35:46;18.60;99.90
25170;DHT22;13129;48.012;10.352;2022-07-30T20:38:11;18.60;99.90
25170;DHT22;13129;48.012;10.352;2022-07-30T20:40:37;18.60;99.90
25170;DHT22;13129;48.012;10.352;2022-07-30T20:43:04;18.50;99.90
25170;DHT22;13129;48.012;10.352;2022-07-30T20:45:30;18.40;99.90
25170;DHT22;13129;48.012;10.352;2022-07-30T20:47:56;18.40;99.90
25170;DHT22;13129;48.012;10.352;2022-07-30T20:50:22;18.30;99.90
25170;DHT22;13129;48.012;10.352;2022-07-30T20:52:48;18.20;99.90
25170;DHT22;13129;48.012;10.352;2022-07-30T20:55:15;18.10;99.90
25170;DHT22;13129;48.012;10.352;2022-07-30T20:57:42;18.00;99.90
25170;DHT22;13129;48.012;10.352;2022-07-30T21:00:09;17.80;99.90
25170;DHT22;13129;48.012;10.352;2022-07-30T21:02:35;17.70;99.90
25170;DHT22;13129;48.012;10.352;2022-07-30T21:05:00;17.60;99.90
25170;DHT22;13129;48.012;10.352;2022-07-30T21:07:28;17.40;99.90
25170;DHT22;13129;48.012;10.352;2022-07-30T21:09:54;17.30;99.90
25170;DHT22;13129;48.012;10.352;2022-07-30T21:12:19;17.20;99.90